Time;durP1;ratioP1;P1;durP2;ratioP2;P2;SDS_P1;SDS_P2;PMS_P1;PMS_P2;Temp;Humidity;BMP_temperature;BMP_pressure;BME280_temperature;BME280_humidity;BME280_pressure;Samples;Min_cycle;Max_cycle;Signal;HPM_P1;HPM_P2
2021/06/01 00:01:46;;;;;;;;;;;;;;;9.07;69.79;100554.09;1666703;85;20527;-87
2021/06/01 00:04:12;;;;;;;;;;;;;;;9.02;69.77;100552.23;1659638;85;20181;-87
2021/06/01 00:06:39;;;;;;;;;;;;;;;8.98;70.05;100551.55;1674798;85;20510;-87
2021/06/01 00:09:07;;;;;;;;;;;;;;;8.96;69.98;100548.19;1671960;85;20148;-87
2021/06/01 00:11:33;;;;;;;;;;;;;;;8.96;70.01;100546.88;1682517;85;20148;-87
2021/06/01 00:13:59;;;;;;;;;;;;;;;8.93;70.69;100547.91;1682771;85;20188;-87
2021/06/01 00:16:25;;;;;;;;;;;;;;;8.89;70.84;100554.30;1682766;85;20544;-87
2021/06/01 00:18:51;;;;;;;;;;;;;;;8.85;71.10;100548.86;1682715;85;20200;-87
2021/06/01 00:21:17;;;;;;;;;;;;;;;8.82;71.37;100550.37;1682777;85;20182;-87
2021/06/01 00:23:43;;;;;;;;;;;;;;;8.79;71.23;100545.29;1682642;85;20271;-87
2021/06/01 00:26:11;;;;;;;;;;;;;;;8.75;71.74;100544.23;1682980;85;20211;-87
2021/06/01 00:28:38;;;;;;;;;;;;;;;8.73;70.92;100545.66;1682455;85;20500;-87
2021/06/01 00:31:04;;;;;;;;;;;;;;;8.73;71.00;100543.50;1683031;85;20171;-87
2021/06/01 00:33:30;;;;;;;;;;;;;;;8.70;71.89;100539.27;1680915;84;20534;-87
2021/06/01 00:35:56;;;;;;;;;;;;;;;8.66;71.67;100546.98;1677796;85;20179;-86
2021/06/01 00:38:22;;;;;;;;;;;;;;;8.64;71.77;100547.53;1682480;85;20164;-87
2021/06/01 00:40:48;;;;;;;;;;;;;;;8.63;71.95;100540.59;1682652;85;20139;-87
2021/06/01 00:43:14;;;;;;;;;;;;;;;8.63;72.63;100540.12;1681923;85;20291;-87
2021/06/01 00:45:40;;;;;;;;;;;;;;;8.62;72.94;100542.83;1674819;85;20186;-87
2021/06/01 00:48:06;;;;;;;;;;;;;;;8.61;73.04;100545.09;1655278;87;20184;-87
2021/06/01 00:50:32;;;;;;;;;;;;;;;8.56;73.04;100545.37;1664384;85;20140;-87
2021/06/01 00:52:58;;;;;;;;;;;;;;;8.54;72.82;100549.03;1682003;85;20199;-87
2021/06/01 00:55:24;;;;;;;;;;;;;;;8.51;73.21;100547.42;1673130;85;20221;-87
2021/06/01 00:57:51;;;;;;;;;;;;;;;8.50;73.01;100540.96;1681559;85;20574;-87
2021/06/01 01:03:02;;;;;;;;;;;;;;;8.47;72.32;100541.98;1668120;85;20260;-88
2021/06/01 01:05:38;;;;;;;;;;;;;;;8.44;72.26;100546.11;1682821;85;20489;-87
2021/06/01 01:10:59;;;;;;;;;;;;;;;8.35;73.02;100542.20;1628406;85;20172;-87
2021/06/01 01:13:28;;;;;;;;;;;;;;;8.31;72.29;100539.86;1682266;85;20179;-88
2021/06/01 01:15:55;;;;;;;;;;;;;;;8.31;72.17;100537.23;1682438;85;20494;-87
2021/06/01 01:18:22;;;;;;;;;;;;;;;8.30;72.20;100539.02;1682847;85;20255;-87
2021/06/01 01:21:03;;;;;;;;;;;;;;;8.30;71.94;100534.23;1682806;85;20159;-87
2021/06/01 01:23:31;;;;;;;;;;;;;;;8.28;72.12;100539.58;1682769;85;20222;-88
2021/06/01 01:26:14;;;;;;;;;;;;;;;8.26;72.28;100536.65;1682674;85;20188;-88
2021/06/01 01:29:16;;;;;;;;;;;;;;;8.22;72.61;100542.56;1682504;85;20177;-88
2021/06/01 01:31:47;;;;;;;;;;;;;;;8.19;72.41;100546.69;1682663;85;20195;-88
2021/06/01 01:34:15;;;;;;;;;;;;;;;8.15;72.38;100539.92;1682767;85;20473;-88
2021/06/01 01:36:41;;;;;;;;;;;;;;;8.12;72.63;100541.41;1682802;85;20168;-88
2021/06/01 01:39:09;;;;;;;;;;;;;;;8.09;72.03;100544.22;1656929;85;20219;-88
2021/06/01 01:41:39;;;;;;;;;;;;;;;8.05;72.86;100540.09;1682696;85;20182;-88
2021/06/01 01:44:10;;;;;;;;;;;;;;;8.01;72.95;100537.27;1682581;85;20168;-88
2021/06/01 01:49:05;;;;;;;;;;;;;;;7.95;72.69;100530.58;1682848;85;20509;-87
2021/06/01 01:51:32;;;;;;;;;;;;;;;7.91;72.45;100529.08;1682419;85;20195;-88
2021/06/01 01:54:01;;;;;;;;;;;;;;;7.90;72.59;100526.08;1682683;85;20311;-88
2021/06/01 01:56:34;;;;;;;;;;;;;;;7.87;72.80;100520.53;1682440;85;20615;-87
2021/06/01 01:59:00;;;;;;;;;;;;;;;7.84;73.36;100521.18;1682533;84;20168;-88
2021/06/01 02:01:30;;;;;;;;;;;;;;;7.78;73.20;100515.80;1682638;85;20195;-88
2021/06/01 02:03:55;;;;;;;;;;;;;;;7.75;73.13;100514.67;1673664;85;20223;-87
2021/06/01 02:06:21;;;;;;;;;;;;;;;7.71;73.69;100511.84;1657235;85;20167;-87
2021/06/01 02:08:47;;;;;;;;;;;;;;;7.69;73.86;100520.27;1682563;85;20191;-88
2021/06/01 02:11:13;;;;;;;;;;;;;;;7.66;74.01;100516.50;1682804;85;20200;-87
2021/06/01 02:14:03;;;;;;;;;;;;;;;7.64;74.17;100517.92;1682570;85;20543;-88
2021/06/01 02:16:36;;;;;;;;;;;;;;;7.61;74.37;100512.84;1682842;85;20484;-87
2021/06/01 02:19:03;;;;;;;;;;;;;;;7.60;74.18;100515.09;1682968;85;20168;-87
2021/06/01 02:24:15;;;;;;;;;;;;;;;7.54;74.59;100513.29;1682557;85;20163;-87
2021/06/01 02:26:44;;;;;;;;;;;;;;;7.48;74.54;100513.16;1682142;85;20156;-87
2021/06/01 02:29:20;;;;;;;;;;;;;;;7.47;73.89;100517.57;1682968;85;20180;-88
2021/06/01 02:31:47;;;;;;;;;;;;;;;7.46;73.85;100514.55;1682386;85;20210;-88
2021/06/01 02:34:13;;;;;;;;;;;;;;;7.45;73.87;100512.86;1682974;85;20167;-87
2021/06/01 02:36:40;;;;;;;;;;;;;;;7.42;73.99;100514.34;1682926;85;20187;-87
2021/06/01 02:39:06;;;;;;;;;;;;;;;7.40;73.95;100506.17;1682643;85;20156;-88
2021/06/01 02:41:33;;;;;;;;;;;;;;;7.37;73.98;100507.21;1680648;85;20477;-88
2021/06/01 02:44:00;;;;;;;;;;;;;;;7.35;74.11;100510.38;1662425;85;20247;-87
2021/06/01 02:46:26;;;;;;;;;;;;;;;7.34;73.89;100503.44;1658470;85;20158;-87
2021/06/01 02:48:53;;;;;;;;;;;;;;;7.34;74.08;100503.44;1682476;85;20220;-87
2021/06/01 02:51:20;;;;;;;;;;;;;;;7.32;73.99;100503.98;1679914;85;20556;-87
2021/06/01 02:53:49;;;;;;;;;;;;;;;7.30;73.71;100503.21;1683098;85;20167;-87
2021/06/01 02:56:15;;;;;;;;;;;;;;;7.29;74.08;100505.47;1681130;85;20560;-88
2021/06/01 02:58:42;;;;;;;;;;;;;;;7.26;73.47;100503.02;1682131;85;20172;-88
2021/06/01 03:01:17;;;;;;;;;;;;;;;7.25;73.69;100507.42;1670403;85;20650;-87
2021/06/01 03:03:48;;;;;;;;;;;;;;;7.25;73.91;100503.95;1673493;85;20473;-86
2021/06/01 03:06:16;;;;;;;;;;;;;;;7.24;73.85;100495.23;1683000;85;20943;-87
2021/06/01 03:08:42;;;;;;;;;;;;;;;7.23;74.09;100498.77;1682604;85;20176;-86
2021/06/01 03:11:08;;;;;;;;;;;;;;;7.22;74.16;100504.96;1683024;85;20151;-87
2021/06/01 03:13:34;;;;;;;;;;;;;;;7.21;74.01;100507.22;1682499;85;20203;-87
2021/06/01 03:16:00;;;;;;;;;;;;;;;7.20;74.28;100495.48;1682225;85;20549;-87
2021/06/01 03:18:26;;;;;;;;;;;;;;;7.20;74.73;100496.78;1674021;85;20277;-87
2021/06/01 03:20:52;;;;;;;;;;;;;;;7.17;74.62;100495.20;1664027;85;20336;-87
2021/06/01 03:23:19;;;;;;;;;;;;;;;7.17;74.71;100499.58;1656178;85;20728;-87
2021/06/01 03:25:45;;;;;;;;;;;;;;;7.15;74.62;100497.53;1658584;85;20314;-87
2021/06/01 03:28:11;;;;;;;;;;;;;;;7.14;74.95;100496.69;1679478;85;20544;-87
2021/06/01 03:30:37;;;;;;;;;;;;;;;7.12;74.91;100493.76;1675351;85;20185;-87
2021/06/01 03:33:04;;;;;;;;;;;;;;;7.13;75.10;100494.13;1655322;85;20222;-87
2021/06/01 03:35:30;;;;;;;;;;;;;;;7.12;74.62;100492.45;1657506;85;20188;-87
2021/06/01 03:37:56;;;;;;;;;;;;;;;7.13;75.53;100497.59;1655193;87;20214;-87
2021/06/01 03:40:23;;;;;;;;;;;;;;;7.11;75.63;100496.86;1660078;85;20195;-87
2021/06/01 03:42:50;;;;;;;;;;;;;;;7.13;75.22;100500.69;1663472;85;20182;-87
2021/06/01 03:45:17;;;;;;;;;;;;;;;7.11;75.52;100495.98;1655390;87;20210;-87
2021/06/01 03:47:43;;;;;;;;;;;;;;;7.13;75.92;100499.38;1678526;85;20195;-86
2021/06/01 03:50:09;;;;;;;;;;;;;;;7.12;75.88;100495.07;1659556;85;20524;-87
2021/06/01 03:52:35;;;;;;;;;;;;;;;7.13;75.50;100492.81;1663406;85;20158;-87
2021/06/01 03:55:01;;;;;;;;;;;;;;;7.14;76.32;100495.81;1681347;85;20179;-87
2021/06/01 03:57:26;;;;;;;;;;;;;;;7.14;75.41;100493.19;1682187;85;20168;-87
2021/06/01 03:59:52;;;;;;;;;;;;;;;7.15;75.79;100497.53;1681382;85;20176;-87
2021/06/01 04:02:18;;;;;;;;;;;;;;;7.17;76.74;100493.02;1680463;85;20160;-87
2021/06/01 04:04:44;;;;;;;;;;;;;;;7.19;76.56;100496.41;1655685;85;20183;-87
2021/06/01 04:07:10;;;;;;;;;;;;;;;7.22;76.98;100491.84;1669138;85;20171;-87
2021/06/01 04:09:36;;;;;;;;;;;;;;;7.26;77.01;100489.89;1682800;85;20506;-87
2021/06/01 04:12:02;;;;;;;;;;;;;;;7.31;76.67;100485.23;1679879;85;20171;-87
2021/06/01 04:14:29;;;;;;;;;;;;;;;7.36;77.22;100487.12;1682850;85;20191;-87
2021/06/01 04:16:57;;;;;;;;;;;;;;;7.46;77.67;100484.81;1672456;85;20212;-87
2021/06/01 04:19:23;;;;;;;;;;;;;;;7.54;77.78;100483.93;1682341;85;20200;-87
2021/06/01 04:21:51;;;;;;;;;;;;;;;7.63;78.58;100478.59;1668534;85;20194;-87
2021/06/01 04:24:16;;;;;;;;;;;;;;;7.72;78.66;100480.22;1671626;85;20279;-87
2021/06/01 04:26:42;;;;;;;;;;;;;;;7.83;78.99;100478.30;1679835;85;20531;-88
2021/06/01 04:29:08;;;;;;;;;;;;;;;7.92;78.98;100477.73;1668118;85;20224;-87
2021/06/01 04:31:33;;;;;;;;;;;;;;;8.04;79.18;100481.43;1682532;85;20155;-87
2021/06/01 04:33:59;;;;;;;;;;;;;;;8.13;79.25;100478.27;1682930;85;20532;-87
2021/06/01 04:36:25;;;;;;;;;;;;;;;8.23;79.11;100473.30;1682544;85;20251;-87
2021/06/01 04:38:53;;;;;;;;;;;;;;;8.33;78.90;100476.22;1679802;85;20175;-87
2021/06/01 04:41:19;;;;;;;;;;;;;;;8.41;78.97;100477.92;1662157;85;20171;-87
2021/06/01 04:43:44;;;;;;;;;;;;;;;8.53;79.29;100481.59;1682877;85;20171;-88
2021/06/01 04:46:10;;;;;;;;;;;;;;;8.61;79.16;100483.27;1682649;85;20236;-87
2021/06/01 04:48:36;;;;;;;;;;;;;;;8.70;79.44;100485.34;1682650;85;20152;-87
2021/06/01 04:51:02;;;;;;;;;;;;;;;8.78;79.74;100492.27;1682837;85;20203;-87
2021/06/01 04:53:28;;;;;;;;;;;;;;;8.88;78.76;100478.06;1682536;85;20595;-87
2021/06/01 04:55:54;;;;;;;;;;;;;;;8.96;78.71;100481.07;1683053;85;20159;-87
2021/06/01 04:58:20;;;;;;;;;;;;;;;9.04;79.16;100478.78;1682670;85;20517;-87
2021/06/01 05:00:45;;;;;;;;;;;;;;;9.13;79.36;100480.83;1682755;85;20168;-88
2021/06/01 05:03:11;;;;;;;;;;;;;;;9.22;79.38;100482.52;1670520;85;20362;-87
2021/06/01 05:05:37;;;;;;;;;;;;;;;9.29;78.89;100489.91;1655063;87;20653;-88
2021/06/01 05:08:03;;;;;;;;;;;;;;;9.36;79.07;100489.88;1655362;87;20241;-88
2021/06/01 05:10:29;;;;;;;;;;;;;;;9.44;78.91;100495.96;1655230;87;20198;-87
2021/06/01 05:12:54;;;;;;;;;;;;;;;9.52;79.09;100488.42;1655251;87;20162;-88
2021/06/01 05:15:20;;;;;;;;;;;;;;;9.59;78.73;100494.97;1655402;87;20166;-88
2021/06/01 05:17:46;;;;;;;;;;;;;;;9.67;78.33;100496.25;1655171;87;20467;-88
2021/06/01 05:20:13;;;;;;;;;;;;;;;9.73;78.42;100487.94;1655702;87;20174;-88
2021/06/01 05:22:38;;;;;;;;;;;;;;;9.81;78.23;100491.77;1655044;87;20202;-87
2021/06/01 05:25:05;;;;;;;;;;;;;;;9.89;77.70;100495.67;1655389;87;20150;-88
2021/06/01 05:27:31;;;;;;;;;;;;;;;9.94;77.58;100498.86;1655144;87;20206;-88
2021/06/01 05:30:00;;;;;;;;;;;;;;;9.98;77.33;100498.53;1655520;87;20166;-88
2021/06/01 05:35:26;;;;;;;;;;;;;;;10.10;76.94;100496.40;1655121;87;20214;-86
2021/06/01 05:37:49;;;;;;;;;;;;;;;10.20;76.89;100500.58;1654376;87;20205;-88
2021/06/01 05:40:15;;;;;;;;;;;;;;;10.29;76.72;100507.86;1655224;87;20146;-89
2021/06/01 05:42:41;;;;;;;;;;;;;;;10.37;76.98;100500.77;1655352;87;20170;-87
2021/06/01 05:45:07;;;;;;;;;;;;;;;10.47;76.99;100507.09;1655491;87;20178;-87
2021/06/01 05:47:33;;;;;;;;;;;;;;;10.59;76.86;100501.42;1655159;87;20551;-88
2021/06/01 05:49:58;;;;;;;;;;;;;;;10.70;76.46;100508.13;1655652;87;20205;-87
2021/06/01 05:52:24;;;;;;;;;;;;;;;10.82;76.62;100508.20;1655177;87;20198;-87
2021/06/01 05:54:50;;;;;;;;;;;;;;;10.93;76.55;100505.66;1655787;87;20185;-89
2021/06/01 05:57:16;;;;;;;;;;;;;;;11.02;76.04;100505.85;1655299;87;20158;-88
2021/06/01 05:59:41;;;;;;;;;;;;;;;11.11;76.02;100512.25;1655345;87;20163;-88
2021/06/01 06:02:07;;;;;;;;;;;;;;;11.22;75.78;100511.02;1655298;87;20177;-90
2021/06/01 06:04:33;;;;;;;;;;;;;;;11.35;76.25;100508.78;1655224;87;20503;-88
2021/06/01 06:06:59;;;;;;;;;;;;;;;11.50;75.72;100507.67;1655228;87;20194;-87
2021/06/01 06:09:25;;;;;;;;;;;;;;;11.63;75.12;100499.20;1655207;87;20622;-86
2021/06/01 06:11:50;;;;;;;;;;;;;;;11.76;74.52;100497.81;1655166;87;20182;-88
2021/06/01 06:14:16;;;;;;;;;;;;;;;11.87;74.60;100496.55;1655499;87;20202;-86
2021/06/01 06:16:48;;;;;;;;;;;;;;;11.95;73.96;100492.02;1654957;87;20151;-84
2021/06/01 06:19:14;;;;;;;;;;;;;;;12.05;73.77;100500.11;1655135;87;20253;-87
2021/06/01 06:21:40;;;;;;;;;;;;;;;12.15;73.43;100501.09;1654945;87;20182;-90
2021/06/01 06:24:06;;;;;;;;;;;;;;;12.26;73.31;100496.28;1655575;87;20496;-89
2021/06/01 06:26:31;;;;;;;;;;;;;;;12.34;73.04;100500.04;1655395;87;20170;-88
2021/06/01 06:28:57;;;;;;;;;;;;;;;12.46;73.33;100502.20;1655115;87;20202;-87
2021/06/01 06:31:23;;;;;;;;;;;;;;;12.56;72.28;100500.52;1655476;87;20189;-84
2021/06/01 06:33:49;;;;;;;;;;;;;;;12.67;71.69;100504.51;1661018;84;20268;-86
2021/06/01 06:36:14;;;;;;;;;;;;;;;12.79;71.15;100500.03;1674145;85;20177;-87
2021/06/01 06:38:41;;;;;;;;;;;;;;;12.88;72.00;100497.98;1679078;85;20168;-86
2021/06/01 06:41:14;;;;;;;;;;;;;;;12.98;70.71;100495.45;1682626;85;20220;-86
2021/06/01 06:43:52;;;;;;;;;;;;;;;13.09;70.05;100491.44;1682703;85;20199;-86
2021/06/01 06:46:36;;;;;;;;;;;;;;;13.22;69.89;100495.76;1682404;85;20180;-85
2021/06/01 06:48:58;;;;;;;;;;;;;;;13.33;69.42;100493.13;1681478;85;20164;-86
2021/06/01 06:51:26;;;;;;;;;;;;;;;13.44;68.87;100489.11;1682557;85;20168;-86
2021/06/01 06:53:52;;;;;;;;;;;;;;;13.56;69.35;100487.27;1682815;85;20263;-88
2021/06/01 06:56:20;;;;;;;;;;;;;;;13.69;69.46;100489.27;1682678;85;20208;-84
2021/06/01 06:58:45;;;;;;;;;;;;;;;13.83;69.21;100489.44;1682628;85;20497;-87
2021/06/01 07:01:12;;;;;;;;;;;;;;;13.95;68.49;100487.55;1682966;85;20155;-86
2021/06/01 07:03:38;;;;;;;;;;;;;;;14.05;68.33;100484.50;1665138;85;20174;-86
2021/06/01 07:06:05;;;;;;;;;;;;;;;14.16;67.89;100490.22;1655289;87;20182;-88
2021/06/01 07:08:31;;;;;;;;;;;;;;;14.24;67.91;100491.22;1655011;87;20185;-88
2021/06/01 07:10:57;;;;;;;;;;;;;;;14.37;67.42;100480.89;1655288;87;20174;-87
2021/06/01 07:13:32;;;;;;;;;;;;;;;14.48;67.44;100476.35;1655219;87;20217;-87
2021/06/01 07:15:58;;;;;;;;;;;;;;;14.60;66.79;100469.64;1654364;86;20241;-86
2021/06/01 07:18:23;;;;;;;;;;;;;;;14.73;66.44;100467.59;1655273;87;20182;-85
2021/06/01 07:20:50;;;;;;;;;;;;;;;14.84;66.27;100463.52;1655205;87;20211;-86
2021/06/01 07:23:16;;;;;;;;;;;;;;;14.97;64.28;100456.61;1655393;87;20162;-85
2021/06/01 07:25:41;;;;;;;;;;;;;;;15.12;64.31;100458.40;1655280;87;20499;-85
2021/06/01 07:28:07;;;;;;;;;;;;;;;15.20;65.17;100459.41;1655133;87;20170;-85
2021/06/01 07:30:33;;;;;;;;;;;;;;;15.32;64.77;100449.95;1655474;87;20265;-84
2021/06/01 07:33:00;;;;;;;;;;;;;;;15.38;64.13;100451.57;1655092;87;20169;-85
2021/06/01 07:35:26;;;;;;;;;;;;;;;15.45;63.77;100447.86;1655503;87;21020;-86
2021/06/01 07:37:52;;;;;;;;;;;;;;;15.52;63.46;100442.83;1655140;87;20174;-86
2021/06/01 07:40:18;;;;;;;;;;;;;;;15.59;63.80;100432.80;1655245;87;20269;-86
2021/06/01 07:42:44;;;;;;;;;;;;;;;15.69;64.17;100428.38;1655263;87;20170;-86
2021/06/01 07:45:10;;;;;;;;;;;;;;;15.77;64.04;100433.47;1655140;87;20173;-84
2021/06/01 07:47:36;;;;;;;;;;;;;;;15.84;62.46;100431.41;1655358;87;20232;-82
2021/06/01 07:50:03;;;;;;;;;;;;;;;15.95;62.12;100427.25;1655109;87;20181;-84
2021/06/01 07:52:28;;;;;;;;;;;;;;;16.07;62.68;100428.43;1655238;87;20222;-85
2021/06/01 07:54:56;;;;;;;;;;;;;;;16.19;61.39;100424.62;1655339;87;20217;-84
2021/06/01 07:57:22;;;;;;;;;;;;;;;16.29;61.92;100420.09;1655020;87;20169;-85
2021/06/01 07:59:47;;;;;;;;;;;;;;;16.40;60.15;100420.40;1655616;87;20166;-86
2021/06/01 08:02:13;;;;;;;;;;;;;;;16.46;60.23;100421.64;1656179;85;20218;-86
2021/06/01 08:04:39;;;;;;;;;;;;;;;16.53;59.96;100421.39;1683052;85;20171;-84
2021/06/01 08:07:08;;;;;;;;;;;;;;;16.58;59.98;100421.31;1682841;85;20147;-86
2021/06/01 08:09:32;;;;;;;;;;;;;;;16.64;59.22;100423.84;1682528;85;20219;-85
2021/06/01 08:11:58;;;;;;;;;;;;;;;16.69;60.20;100426.92;1682753;85;20600;-85
2021/06/01 08:14:24;;;;;;;;;;;;;;;16.76;59.87;100420.54;1682597;85;20602;-84
2021/06/01 08:16:50;;;;;;;;;;;;;;;16.81;59.91;100423.58;1682869;85;20199;-84
2021/06/01 08:19:21;;;;;;;;;;;;;;;16.85;58.94;100425.81;1682799;85;20548;-85
2021/06/01 08:21:56;;;;;;;;;;;;;;;16.93;58.35;100425.55;1682020;85;20235;-85
2021/06/01 08:24:18;;;;;;;;;;;;;;;16.98;58.30;100421.92;1682052;85;20513;-87
2021/06/01 08:26:44;;;;;;;;;;;;;;;17.07;56.87;100418.36;1682491;85;20255;-86
2021/06/01 08:29:10;;;;;;;;;;;;;;;17.18;57.83;100423.99;1683094;85;20171;-85
2021/06/01 08:31:35;;;;;;;;;;;;;;;17.27;57.08;100415.89;1682682;85;20192;-86
2021/06/01 08:34:01;;;;;;;;;;;;;;;17.34;57.17;100411.64;1683008;85;20175;-87
2021/06/01 08:36:27;;;;;;;;;;;;;;;17.43;56.11;100409.03;1682950;85;20167;-83
2021/06/01 08:38:54;;;;;;;;;;;;;;;17.47;56.82;100411.27;1682638;85;20163;-87
2021/06/01 08:41:20;;;;;;;;;;;;;;;17.52;56.34;100414.79;1683108;85;20683;-85
2021/06/01 08:43:47;;;;;;;;;;;;;;;17.54;55.74;100404.31;1682642;85;20184;-85
2021/06/01 08:46:13;;;;;;;;;;;;;;;17.55;55.85;100409.14;1682822;85;20229;-87
2021/06/01 08:48:39;;;;;;;;;;;;;;;17.55;55.26;100403.81;1682495;85;20649;-87
2021/06/01 08:51:08;;;;;;;;;;;;;;;17.57;56.04;100402.67;1682763;85;20231;-88
2021/06/01 08:53:34;;;;;;;;;;;;;;;17.65;54.94;100400.55;1682954;85;20171;-86
2021/06/01 08:56:00;;;;;;;;;;;;;;;17.71;53.97;100401.77;1682481;85;20188;-84
2021/06/01 08:58:26;;;;;;;;;;;;;;;17.77;54.55;100396.68;1682938;85;20159;-83
2021/06/01 09:00:52;;;;;;;;;;;;;;;17.91;54.60;100402.44;1682563;84;20205;-84
2021/06/01 09:03:22;;;;;;;;;;;;;;;18.03;54.24;100391.81;1682735;85;20235;-85
2021/06/01 09:06:02;;;;;;;;;;;;;;;18.10;53.74;100386.67;1682581;85;20188;-85
2021/06/01 09:11:47;;;;;;;;;;;;;;;18.17;53.62;100388.58;1682660;85;20525;-87
2021/06/01 09:22:34;;;;;;;;;;;;;;;18.40;53.53;100380.84;1678738;85;20176;-87
2021/06/01 09:25:05;;;;;;;;;;;;;;;18.47;52.57;100371.68;1675445;84;20223;-91
2021/06/01 09:27:45;;;;;;;;;;;;;;;18.51;52.52;100367.17;1681945;85;20259;-89
2021/06/01 09:30:33;;;;;;;;;;;;;;;18.62;53.97;100364.69;1682938;85;20231;-88
2021/06/01 09:32:59;;;;;;;;;;;;;;;18.81;53.04;100366.80;1683239;85;20160;-89
2021/06/01 09:35:43;;;;;;;;;;;;;;;18.98;50.78;100358.63;1682694;85;20187;-84
2021/06/01 09:38:09;;;;;;;;;;;;;;;19.06;52.52;100352.47;1668409;85;20244;-84
2021/06/01 09:40:35;;;;;;;;;;;;;;;19.15;51.04;100340.78;1682686;85;20220;-85
2021/06/01 09:43:01;;;;;;;;;;;;;;;19.17;51.41;100336.09;1682364;85;20192;-84
2021/06/01 09:45:27;;;;;;;;;;;;;;;19.21;51.04;100338.75;1682704;85;20212;-83
2021/06/01 09:48:11;;;;;;;;;;;;;;;19.25;50.79;100341.09;1682445;85;20914;-84
2021/06/01 09:50:49;;;;;;;;;;;;;;;19.24;49.34;100332.23;1654302;87;20502;-84
2021/06/01 09:53:25;;;;;;;;;;;;;;;19.29;49.68;100333.09;1654666;87;20337;-84
2021/06/01 09:55:47;;;;;;;;;;;;;;;19.42;49.49;100336.09;1654208;87;20507;-86
2021/06/01 09:58:22;;;;;;;;;;;;;;;19.53;50.81;100329.05;1655146;87;20190;-86
2021/06/01 10:00:48;;;;;;;;;;;;;;;19.65;49.80;100329.06;1649939;87;20233;-86
2021/06/01 10:03:23;;;;;;;;;;;;;;;19.74;49.27;100323.68;1667831;85;20208;-84
2021/06/01 10:05:48;;;;;;;;;;;;;;;19.82;49.53;100323.68;1681438;85;20175;-85
2021/06/01 10:08:16;;;;;;;;;;;;;;;19.99;50.12;100325.80;1682736;85;20164;-85
2021/06/01 10:10:51;;;;;;;;;;;;;;;20.18;47.97;100313.85;1682662;85;20587;-85
2021/06/01 10:13:18;;;;;;;;;;;;;;;20.33;48.80;100322.30;1682608;85;20171;-82
2021/06/01 10:15:43;;;;;;;;;;;;;;;20.35;48.42;100315.44;1682697;84;20179;-85
2021/06/01 10:18:10;;;;;;;;;;;;;;;20.40;48.60;100326.48;1682304;85;20168;-85
2021/06/01 10:20:38;;;;;;;;;;;;;;;20.36;47.41;100327.81;1682696;85;20191;-85
2021/06/01 10:23:05;;;;;;;;;;;;;;;20.37;47.92;100320.13;1682464;85;20647;-85
2021/06/01 10:25:31;;;;;;;;;;;;;;;20.50;48.87;100318.19;1682653;85;20179;-83
2021/06/01 10:28:05;;;;;;;;;;;;;;;20.58;47.56;100320.37;1682515;85;20204;-84
2021/06/01 10:30:30;;;;;;;;;;;;;;;20.58;45.98;100320.88;1681141;85;20230;-81
2021/06/01 10:33:02;;;;;;;;;;;;;;;20.59;46.94;100313.98;1682605;85;20151;-84
2021/06/01 10:35:35;;;;;;;;;;;;;;;20.65;47.85;100323.17;1681808;85;20185;-84
2021/06/01 10:44:06;;;;;;;;;;;;;;;20.72;46.13;100329.49;1633090;85;20213;-85
2021/06/01 10:48:57;;;;;;;;;;;;;;;20.48;45.54;100323.75;1664265;85;20219;-84
2021/06/01 10:51:28;;;;;;;;;;;;;;;20.43;45.74;100324.77;1680007;85;20199;-84
2021/06/01 10:53:54;;;;;;;;;;;;;;;20.39;45.36;100324.28;1670719;85;20614;-83
2021/06/01 10:56:21;;;;;;;;;;;;;;;20.37;45.81;100318.79;1655355;87;20178;-85
2021/06/01 10:58:52;;;;;;;;;;;;;;;20.38;46.52;100313.24;1679878;85;20183;-86
2021/06/01 11:04:30;;;;;;;;;;;;;;;20.43;46.57;100314.05;1660344;85;20191;-84
2021/06/01 11:09:44;;;;;;;;;;;;;;;20.52;46.33;100307.67;1655299;87;20217;-86
2021/06/01 11:12:20;;;;;;;;;;;;;;;20.57;45.74;100299.94;1654702;87;20169;-86
2021/06/01 11:14:48;;;;;;;;;;;;;;;20.61;46.85;100301.77;1655204;87;20182;-87
2021/06/01 11:17:15;;;;;;;;;;;;;;;20.68;46.19;100294.67;1677320;84;20192;-85
2021/06/01 11:19:52;;;;;;;;;;;;;;;20.74;46.24;100287.27;1683219;85;20492;-86
2021/06/01 11:22:25;;;;;;;;;;;;;;;20.81;46.04;100294.09;1682349;85;20164;-85
2021/06/01 11:33:38;;;;;;;;;;;;;;;20.96;45.00;100294.13;1682481;85;20520;-85
2021/06/01 11:36:06;;;;;;;;;;;;;;;20.90;45.17;100297.05;1682775;85;20216;-83
2021/06/01 11:38:39;;;;;;;;;;;;;;;20.89;46.11;100299.38;1682679;85;20159;-84
2021/06/01 11:43:38;;;;;;;;;;;;;;;20.84;45.89;100293.22;1653401;85;20196;-86
2021/06/01 11:46:08;;;;;;;;;;;;;;;20.88;45.03;100286.98;1682579;85;20183;-82
2021/06/01 11:51:28;;;;;;;;;;;;;;;21.06;45.57;100279.48;1682647;85;20259;-85
2021/06/01 11:54:08;;;;;;;;;;;;;;;21.20;45.76;100279.19;1682907;85;20152;-86
2021/06/01 11:56:59;;;;;;;;;;;;;;;21.45;47.05;100274.43;1682613;85;20247;-82
2021/06/01 12:18:45;;;;;;;;;;;;;;;21.15;44.14;100280.22;1682782;85;20225;-82
2021/06/01 12:21:22;;;;;;;;;;;;;;;21.10;43.83;100283.97;1682316;85;20548;-82
2021/06/01 12:24:09;;;;;;;;;;;;;;;21.01;44.24;100281.03;1682753;85;20183;-84
2021/06/01 12:26:42;;;;;;;;;;;;;;;20.91;44.37;100283.12;1682263;85;20521;-82
2021/06/01 12:32:03;;;;;;;;;;;;;;;20.81;45.29;100280.68;1682626;85;20195;-85
2021/06/01 12:34:56;;;;;;;;;;;;;;;20.83;44.86;100270.11;1682616;85;20183;-85
2021/06/01 12:45:42;;;;;;;;;;;;;;;20.92;44.17;100253.42;1682287;85;20502;-85
2021/06/01 13:13:53;;;;;;;;;;;;;;;20.63;44.88;100245.27;1665745;85;20174;-88
2021/06/01 13:21:07;;;;;;;;;;;;;;;20.66;45.50;100243.06;1624787;88;20521;-85
2021/06/01 13:40:19;;;;;;;;;;;;;;;20.67;45.56;100235.89;1692946;83;20230;-85
2021/06/01 13:48:34;;;;;;;;;;;;;;;20.67;44.74;100235.89;1680885;84;20163;-86
2021/06/01 13:56:01;;;;;;;;;;;;;;;20.74;45.33;100231.47;1695240;84;20250;-86
2021/06/01 13:58:40;;;;;;;;;;;;;;;20.75;45.05;100236.64;1694233;84;20172;-85
2021/06/01 14:01:09;;;;;;;;;;;;;;;20.79;45.62;100235.26;1683187;84;20186;-83
2021/06/01 15:09:22;;;;;;;;;;;;;;;21.50;43.87;100170.55;1672617;85;20631;-83
2021/06/01 16:11:28;;;;;;;;;;;;;;;21.64;41.95;100152.75;1689551;81;27444;-92
2021/06/01 16:13:55;;;;;;;;;;;;;;;21.61;41.78;100143.73;1717025;82;20144;-94
2021/06/01 16:22:01;;;;;;;;;;;;;;;21.52;42.07;100143.84;1674643;84;20216;-93
2021/06/01 16:29:44;;;;;;;;;;;;;;;21.45;42.45;100137.53;1679424;85;20259;-92
2021/06/01 16:32:23;;;;;;;;;;;;;;;21.46;43.00;100141.08;1693197;83;20335;-91
2021/06/01 17:05:15;;;;;;;;;;;;;;;20.90;42.36;100138.81;1702565;83;20621;-89
2021/06/01 17:13:08;;;;;;;;;;;;;;;20.76;43.08;100144.96;1700554;83;20152;-89
2021/06/01 17:15:35;;;;;;;;;;;;;;;20.70;43.09;100145.72;1697117;83;20197;-88
2021/06/01 17:18:15;;;;;;;;;;;;;;;20.64;43.06;100156.65;1695413;83;20201;-87
2021/06/01 17:31:43;;;;;;;;;;;;;;;20.32;44.34;100159.88;1669432;84;20153;-89
2021/06/01 17:36:32;;;;;;;;;;;;;;;20.15;45.17;100157.81;1706766;83;20186;-88
2021/06/01 17:38:59;;;;;;;;;;;;;;;20.09;45.34;100163.05;1712681;83;20215;-87
2021/06/01 17:41:28;;;;;;;;;;;;;;;20.00;45.46;100166.27;1720730;83;20531;-87
2021/06/01 17:43:57;;;;;;;;;;;;;;;19.93;45.53;100163.97;1711392;83;20201;-88
2021/06/01 17:46:24;;;;;;;;;;;;;;;19.86;45.54;100167.03;1704957;83;20186;-87
2021/06/01 17:48:56;;;;;;;;;;;;;;;19.78;45.84;100171.93;1711766;83;20199;-87
2021/06/01 17:51:24;;;;;;;;;;;;;;;19.71;46.23;100168.28;1723981;83;20595;-86
2021/06/01 17:53:51;;;;;;;;;;;;;;;19.65;46.00;100177.01;1719208;83;20510;-87
2021/06/01 17:56:23;;;;;;;;;;;;;;;19.58;45.95;100176.01;1708464;83;20689;-88
2021/06/01 17:58:50;;;;;;;;;;;;;;;19.51;45.99;100172.33;1706708;83;20195;-88
2021/06/01 18:01:21;;;;;;;;;;;;;;;19.44;46.08;100176.20;1708979;83;20952;-87
2021/06/01 18:06:30;;;;;;;;;;;;;;;19.31;46.35;100189.28;1704233;83;20598;-87
2021/06/01 18:09:08;;;;;;;;;;;;;;;19.25;46.49;100187.28;1708374;83;21073;-87
2021/06/01 18:11:49;;;;;;;;;;;;;;;19.19;46.78;100190.16;1703771;83;20146;-87
2021/06/01 19:22:40;;;;;;;;;;;;;;;17.78;51.16;100251.55;1706887;84;20197;-89
2021/06/01 19:24:39;;;;;;;;;;;;;;;17.73;51.40;100252.48;1702890;84;20174;-88